createdAt,value
2022-11-12T00:00:56.511Z,102790.78
2022-11-12T00:03:23.070Z,102789.94
2022-11-12T00:05:50.724Z,102785.38
2022-11-12T00:08:17.860Z,102791.63
2022-11-12T00:10:45.359Z,102788.94
2022-11-12T00:13:12.097Z,102787.94
2022-11-12T00:15:38.854Z,102786.38
2022-11-12T00:18:05.513Z,102790.78
2022-11-12T00:20:32.061Z,102784.94
2022-11-12T00:22:58.706Z,102783.97
2022-11-12T00:25:25.273Z,102789.50
2022-11-12T00:27:51.809Z,102789.50
2022-11-12T00:30:18.369Z,102792.19
2022-11-12T00:32:44.946Z,102786.78
2022-11-12T00:35:13.828Z,102783.13
2022-11-12T00:37:40.847Z,102778.81
2022-11-12T00:40:08.335Z,102779.69
2022-11-12T00:42:34.898Z,102790.50
2022-11-12T00:45:01.603Z,102784.38
2022-11-12T00:47:28.224Z,102777.97
2022-11-12T00:49:54.784Z,102776.25
2022-11-12T00:52:21.459Z,102782.66
2022-11-12T00:54:48.407Z,102780.81
2022-11-12T00:57:14.987Z,102775.56
2022-11-12T00:59:41.572Z,102778.13
2022-11-12T01:02:08.128Z,102779.13
2022-11-12T01:04:34.768Z,102776.41
2022-11-12T01:07:01.341Z,102775.41
2022-11-12T01:09:27.934Z,102773.84
2022-11-12T01:11:54.484Z,102777.25
2022-11-12T01:14:21.039Z,102774.56
2022-11-12T01:16:47.763Z,102767.72
2022-11-12T01:19:14.620Z,102767.72
2022-11-12T01:21:43.543Z,102769.59
2022-11-12T01:24:11.011Z,102778.56
2022-11-12T01:26:37.813Z,102775.00
2022-11-12T01:29:04.884Z,102779.25
2022-11-12T01:31:34.744Z,102765.75
2022-11-12T01:34:05.477Z,102776.41
2022-11-12T01:36:37.973Z,102778.25
2022-11-12T01:39:08.961Z,102772.84
2022-11-12T01:41:38.494Z,102780.97
2022-11-12T01:44:13.196Z,102779.81
2022-11-12T01:47:04.387Z,102772.84
2022-11-12T01:49:58.252Z,102780.13
2022-11-12T01:52:37.603Z,102785.66
2022-11-12T01:55:13.763Z,102778.25
2022-11-12T01:57:45.867Z,102782.97
2022-11-12T02:00:14.058Z,102790.78
2022-11-12T02:02:43.689Z,102788.09
2022-11-12T02:05:11.847Z,102792.63
2022-11-12T02:07:40.841Z,102791.63
2022-11-12T02:10:09.105Z,102791.06
2022-11-12T02:12:55.038Z,102790.22
2022-11-12T02:15:21.564Z,102793.78
2022-11-12T02:17:48.099Z,102799.91
2022-11-12T02:20:15.315Z,102793.50
2022-11-12T02:22:41.913Z,102801.91
2022-11-12T02:25:14.500Z,102803.91
2022-11-12T02:27:41.196Z,102805.84
2022-11-12T02:30:08.394Z,102812.00
2022-11-12T02:32:34.955Z,102811.25
2022-11-12T02:35:01.491Z,102817.41
2022-11-12T02:37:28.063Z,102818.13
2022-11-12T02:39:54.584Z,102817.56
2022-11-12T02:42:21.106Z,102821.81
2022-11-12T02:44:47.759Z,102830.94
2022-11-12T02:47:14.313Z,102829.22
2022-11-12T02:49:40.842Z,102830.34
2022-11-12T02:52:07.378Z,102832.34
2022-11-12T02:54:33.940Z,102836.75
2022-11-12T02:57:00.505Z,102841.00
2022-11-12T02:59:27.057Z,102844.72
2022-11-12T03:01:53.602Z,102847.41
2022-11-12T03:04:20.143Z,102850.13
2022-11-12T03:06:46.764Z,102850.13
2022-11-12T03:09:13.441Z,102853.81
2022-11-12T03:11:39.974Z,102861.94
2022-11-12T03:14:06.589Z,102856.53
2022-11-12T03:16:33.105Z,102858.97
2022-11-12T03:18:59.629Z,102850.72
2022-11-12T03:21:26.153Z,102853.44
2022-11-12T03:23:52.685Z,102852.56
2022-11-12T03:26:19.214Z,102856.38
2022-11-12T03:28:45.737Z,102850.59
2022-11-12T03:31:12.260Z,102850.88
2022-11-12T03:33:38.800Z,102855.53
2022-11-12T03:36:05.531Z,102858.38
2022-11-12T03:38:32.064Z,102863.94
2022-11-12T03:40:58.609Z,102857.81
2022-11-12T03:43:25.350Z,102862.50
2022-11-12T03:45:51.887Z,102858.09
2022-11-12T03:48:18.411Z,102852.84
2022-11-12T03:50:44.964Z,102855.66
2022-11-12T03:53:11.864Z,102852.94
2022-11-12T03:55:38.456Z,102860.22
2022-11-12T03:58:05.098Z,102859.34
2022-11-12T04:00:31.709Z,102854.81
2022-11-12T04:02:59.454Z,102856.78
2022-11-12T04:05:45.522Z,102856.94
2022-11-12T04:08:38.745Z,102855.38
2022-11-12T04:11:15.889Z,102858.94
2022-11-12T04:13:45.637Z,102854.53
2022-11-12T04:16:36.617Z,102851.81
2022-11-12T04:19:22.910Z,102849.97
2022-11-12T04:21:54.844Z,102855.38
2022-11-12T04:24:47.182Z,102843.41
2022-11-12T04:27:19.378Z,102847.25
2022-11-12T04:30:05.943Z,102848.81
2022-11-12T04:32:34.314Z,102847.13
2022-11-12T04:35:01.338Z,102850.81
2022-11-12T04:37:44.167Z,102853.38
2022-11-12T04:40:30.878Z,102850.69
2022-11-12T04:43:16.202Z,102846.13
2022-11-12T04:45:44.992Z,102847.97
2022-11-12T04:48:11.656Z,102849.69
2022-11-12T04:50:38.959Z,102857.78
2022-11-12T04:53:05.538Z,102856.94
2022-11-12T04:55:32.908Z,102855.22
2022-11-12T04:58:00.932Z,102850.69
2022-11-12T05:00:28.491Z,102846.41
2022-11-12T05:02:55.133Z,102846.41
2022-11-12T05:05:21.764Z,102855.38
2022-11-12T05:07:48.342Z,102849.25
2022-11-12T05:10:15.166Z,102861.91
2022-11-12T05:12:43.371Z,102852.81
2022-11-12T05:15:11.685Z,102850.09
2022-11-12T05:17:43.738Z,102853.81
2022-11-12T05:20:12.297Z,102850.25
2022-11-12T05:22:45.889Z,102868.19
2022-11-12T05:25:17.169Z,102867.19
2022-11-12T05:27:43.716Z,102866.47
2022-11-12T05:30:10.812Z,102866.31
2022-11-12T05:32:37.523Z,102867.31
2022-11-12T05:35:04.320Z,102864.47
2022-11-12T05:37:30.872Z,102874.44
2022-11-12T05:39:57.497Z,102873.59
2022-11-12T05:42:24.030Z,102877.28
2022-11-12T05:44:50.590Z,102871.88
2022-11-12T05:47:17.117Z,102884.41
2022-11-12T05:49:43.670Z,102879.13
2022-11-12T05:52:10.233Z,102882.69
2022-11-12T05:54:36.765Z,102886.41
2022-11-12T05:57:04.110Z,102884.66
2022-11-12T05:59:30.669Z,102889.19
2022-11-12T06:01:57.199Z,102888.34
2022-11-12T06:04:23.977Z,102882.94
2022-11-12T06:06:50.571Z,102884.78
2022-11-12T06:09:17.230Z,102884.06
2022-11-12T06:11:43.872Z,102885.06
2022-11-12T06:14:10.484Z,102894.03
2022-11-12T06:16:37.087Z,102890.63
2022-11-12T06:19:04.865Z,102896.88
2022-11-12T06:21:31.462Z,102896.31
2022-11-12T06:23:59.963Z,102902.56
2022-11-12T06:26:28.381Z,102901.56
2022-11-12T06:28:55.392Z,102896.41
2022-11-12T06:31:22.920Z,102913.63
2022-11-12T06:33:49.709Z,102903.44
2022-11-12T06:36:19.225Z,102913.25
2022-11-12T06:38:45.785Z,102908.84
2022-11-12T06:41:13.359Z,102917.94
2022-11-12T06:43:40.026Z,102920.63
2022-11-12T06:46:17.735Z,102924.19
2022-11-12T06:48:44.312Z,102928.59
2022-11-12T06:51:16.960Z,102925.06
2022-11-12T06:53:43.552Z,102920.63
2022-11-12T06:56:10.272Z,102924.34
2022-11-12T06:58:37.162Z,102918.50
2022-11-12T07:01:10.926Z,102924.91
2022-11-12T07:03:39.162Z,102917.78
2022-11-12T07:06:08.349Z,102913.81
2022-11-12T07:08:35.260Z,102917.38
2022-11-12T07:11:02.052Z,102923.63
2022-11-12T07:13:31.401Z,102928.50
2022-11-12T07:15:59.798Z,102928.66
2022-11-12T07:18:27.589Z,102932.09
2022-11-12T07:21:02.377Z,102940.09
2022-11-12T07:23:31.498Z,102936.56
2022-11-12T07:26:10.934Z,102935.16
2022-11-12T07:28:37.462Z,102947.69
2022-11-12T07:31:07.089Z,102950.88
2022-11-12T07:33:34.116Z,102950.19
2022-11-12T07:36:05.393Z,102939.78
2022-11-12T07:38:34.615Z,102947.59
2022-11-12T07:41:12.965Z,102951.72
2022-11-12T07:43:40.878Z,102953.97
2022-11-12T07:46:11.640Z,102950.03
2022-11-12T07:48:39.801Z,102966.75
2022-11-12T07:51:15.419Z,102954.97
2022-11-12T07:53:43.581Z,102968.91
2022-11-12T07:56:19.662Z,102960.34
2022-11-12T07:58:47.045Z,102953.91
2022-11-12T08:01:40.611Z,102965.72
2022-11-12T08:04:09.349Z,102965.72
2022-11-12T08:06:37.066Z,102954.00
2022-11-12T08:09:06.532Z,102960.91
2022-11-12T08:11:33.900Z,102942.13
2022-11-12T08:14:00.851Z,102950.00
2022-11-12T08:16:27.425Z,102944.94
2022-11-12T08:18:53.953Z,102953.72
2022-11-12T08:21:20.473Z,102955.88
2022-11-12T08:23:47.139Z,102959.59
2022-11-12T08:26:16.921Z,102953.81
2022-11-12T08:28:43.867Z,102955.88
2022-11-12T08:31:13.693Z,102954.50
2022-11-12T08:33:41.053Z,102951.50
2022-11-12T08:36:10.099Z,102960.16
2022-11-12T08:38:37.321Z,102958.59
2022-11-12T08:41:12.463Z,102946.50
2022-11-12T08:43:40.567Z,102949.38
2022-11-12T08:46:07.434Z,102951.06
2022-11-12T08:48:34.465Z,102956.63
2022-11-12T08:51:03.144Z,102958.91
2022-11-12T08:53:29.737Z,102957.19
2022-11-12T08:55:57.087Z,102960.63
2022-11-12T08:58:25.290Z,102953.78
2022-11-12T09:00:52.985Z,102955.94
2022-11-12T09:03:21.737Z,102961.34
2022-11-12T09:05:50.312Z,102955.22
2022-11-12T09:08:19.708Z,102947.09
2022-11-12T09:10:47.201Z,102962.19
2022-11-12T09:13:14.332Z,102952.94
2022-11-12T09:15:41.102Z,102963.19
2022-11-12T09:18:11.853Z,102957.47
2022-11-12T09:20:38.382Z,102957.94
2022-11-12T09:23:10.693Z,102957.19
2022-11-12T09:25:38.229Z,102963.75
2022-11-12T09:28:13.083Z,102963.75
2022-11-12T09:30:43.475Z,102968.63
2022-11-12T09:33:10.083Z,102973.56
2022-11-12T09:35:36.627Z,102970.88
2022-11-12T09:38:03.169Z,102974.31
2022-11-12T09:40:52.683Z,102971.63
2022-11-12T09:43:19.248Z,102964.16
2022-11-12T09:46:06.489Z,102971.19
2022-11-12T09:48:40.631Z,102970.59
2022-11-12T09:51:24.037Z,102965.47
2022-11-12T09:53:57.646Z,102970.63
2022-11-12T09:56:26.215Z,102976.44
2022-11-12T09:58:53.554Z,102966.91
2022-11-12T10:01:25.989Z,102962.63
2022-11-12T10:04:23.449Z,102971.44
2022-11-12T10:07:12.103Z,102974.88
2022-11-12T10:09:45.325Z,102959.19
2022-11-12T10:12:33.173Z,102962.91
2022-11-12T10:14:59.664Z,102972.19
2022-11-12T10:17:37.217Z,102969.16
2022-11-12T10:20:19.652Z,102968.31
2022-11-12T10:22:54.962Z,102968.19
2022-11-12T10:25:21.588Z,102966.47
2022-11-12T10:27:49.305Z,102970.59
2022-11-12T10:30:21.973Z,102965.03
2022-11-12T10:32:49.053Z,102967.59
2022-11-12T10:35:23.786Z,102956.34
2022-11-12T10:38:02.744Z,102959.44
2022-11-12T10:40:37.336Z,102949.75
2022-11-12T10:43:19.769Z,102947.50
2022-11-12T10:45:48.715Z,102952.34
2022-11-12T10:48:27.182Z,102956.28
2022-11-12T10:50:54.646Z,102948.63
2022-11-12T10:53:34.828Z,102946.34
2022-11-12T10:56:23.228Z,102962.31
2022-11-12T10:59:16.915Z,102960.81
2022-11-12T11:01:46.149Z,102954.97
2022-11-12T11:04:29.736Z,102968.81
2022-11-12T11:07:03.057Z,102970.41
2022-11-12T11:09:30.209Z,102959.72
2022-11-12T11:11:57.384Z,102972.97
2022-11-12T11:14:25.499Z,102976.53
2022-11-12T11:16:54.531Z,102967.81
2022-11-12T11:19:21.348Z,102953.31
2022-11-12T11:21:50.896Z,102975.38
2022-11-12T11:24:44.847Z,102963.13
2022-11-12T11:27:28.388Z,102955.41
2022-11-12T11:30:12.942Z,102966.94
2022-11-12T11:32:54.177Z,102949.84
2022-11-12T11:35:26.112Z,102961.97
2022-11-12T11:38:14.352Z,102963.59
2022-11-12T11:41:19.912Z,102956.25
2022-11-12T11:43:46.436Z,102947.16
2022-11-12T11:46:27.981Z,102956.13
2022-11-12T11:49:32.017Z,102929.22
2022-11-12T11:52:26.545Z,102917.13
2022-11-12T11:55:17.884Z,102933.09
2022-11-12T11:57:57.241Z,102919.69
2022-11-12T12:00:25.633Z,102909.03
2022-11-12T12:03:20.760Z,102915.44
2022-11-12T12:06:11.840Z,102911.59
2022-11-12T12:08:47.381Z,102899.75
2022-11-12T12:11:22.996Z,102902.75
2022-11-12T12:14:16.594Z,102900.19
2022-11-12T12:17:02.471Z,102905.47
2022-11-12T12:19:35.930Z,102905.47
2022-11-12T12:22:05.937Z,102908.31
2022-11-12T12:24:42.702Z,102912.16
2022-11-12T12:27:14.142Z,102907.31
2022-11-12T12:29:49.915Z,102907.31
2022-11-12T12:32:24.467Z,102910.75
2022-11-12T12:35:21.615Z,102906.91
2022-11-12T12:38:00.143Z,102900.34
2022-11-12T12:40:34.593Z,102899.63
2022-11-12T12:43:33.306Z,102899.78
2022-11-12T12:46:00.064Z,102895.50
2022-11-12T12:48:32.795Z,102891.38
2022-11-12T12:50:59.466Z,102891.53
2022-11-12T12:53:29.036Z,102893.78
2022-11-12T12:56:02.668Z,102902.19
2022-11-12T12:58:46.005Z,102896.47
2022-11-12T13:01:21.467Z,102891.34
2022-11-12T13:03:50.979Z,102886.41
2022-11-12T13:06:23.309Z,102898.78
2022-11-12T13:09:01.353Z,102891.94
2022-11-12T13:12:01.455Z,102871.28
2022-11-12T13:14:37.108Z,102886.41
2022-11-12T13:17:11.192Z,102874.69
2022-11-12T13:19:46.576Z,102882.69
2022-11-12T13:22:19.303Z,102878.00
2022-11-12T13:25:08.341Z,102885.09
2022-11-12T13:27:44.133Z,102877.13
2022-11-12T13:30:13.313Z,102892.81
2022-11-12T13:32:49.725Z,102882.09
2022-11-12T13:35:21.930Z,102892.81
2022-11-12T13:37:59.011Z,102881.97
2022-11-12T13:40:52.712Z,102882.69
2022-11-12T13:43:36.183Z,102888.09
2022-11-12T13:46:26.695Z,102876.84
2022-11-12T13:49:07.265Z,102882.25
2022-11-12T13:51:45.057Z,102882.97
2022-11-12T13:54:27.694Z,102885.97
2022-11-12T13:56:54.290Z,102881.13
2022-11-12T13:59:23.521Z,102883.06
2022-11-12T14:01:50.221Z,102884.38
2022-11-12T14:04:20.088Z,102887.16
2022-11-12T14:06:46.645Z,102897.28
2022-11-12T14:09:50.885Z,102890.00
2022-11-12T14:12:59.073Z,102882.34
2022-11-12T14:15:31.929Z,102880.53
2022-11-12T14:18:10.625Z,102877.81
2022-11-12T14:20:39.743Z,102888.22
2022-11-12T14:23:13.990Z,102880.94
2022-11-12T14:25:50.253Z,102880.56
2022-11-12T14:28:31.411Z,102877.00
2022-11-12T14:30:59.730Z,102862.31
2022-11-12T14:33:28.482Z,102873.28
2022-11-12T14:36:00.044Z,102876.13
2022-11-12T14:38:37.048Z,102874.97
2022-11-12T14:41:09.150Z,102875.72
2022-11-12T14:43:43.209Z,102868.69
2022-11-12T14:46:23.584Z,102875.97
2022-11-12T14:49:12.162Z,102868.69
2022-11-12T14:51:48.907Z,102866.97
2022-11-12T14:54:40.712Z,102868.81
2022-11-12T14:57:16.474Z,102872.50
2022-11-12T14:59:43.211Z,102865.09
2022-11-12T15:02:55.273Z,102863.53
2022-11-12T15:05:16.095Z,102864.44
2022-11-12T15:07:59.104Z,102861.03
2022-11-12T15:10:41.999Z,102857.19
2022-11-12T15:13:11.487Z,102873.28
2022-11-12T15:15:40.784Z,102873.28
2022-11-12T15:18:16.140Z,102860.59
2022-11-12T15:20:43.063Z,102866.16
2022-11-12T15:23:19.204Z,102864.75
2022-11-12T15:25:45.768Z,102856.78
2022-11-12T15:28:23.498Z,102861.03
2022-11-12T15:31:16.530Z,102860.34
2022-11-12T15:33:43.129Z,102861.44
2022-11-12T15:36:19.198Z,102853.47
2022-11-12T15:38:51.410Z,102852.91
2022-11-12T15:41:29.421Z,102848.66
2022-11-12T15:43:56.666Z,102847.66
2022-11-12T15:46:23.270Z,102845.19
2022-11-12T15:48:55.623Z,102844.50
2022-11-12T15:51:22.561Z,102854.19
2022-11-12T15:53:49.190Z,102855.06
2022-11-12T15:56:19.324Z,102839.34
2022-11-12T15:58:45.944Z,102848.47
2022-11-12T16:01:12.782Z,102847.03
2022-11-12T16:03:39.456Z,102865.38
2022-11-12T16:06:09.364Z,102865.22
2022-11-12T16:08:36.275Z,102863.81
2022-11-12T16:11:03.099Z,102869.66
2022-11-12T16:13:36.127Z,102857.84
2022-11-12T16:16:06.367Z,102852.56
2022-11-12T16:18:32.915Z,102866.94
2022-11-12T16:20:59.508Z,102873.47
2022-11-12T16:23:26.325Z,102869.81
2022-11-12T16:25:53.114Z,102856.13
2022-11-12T16:28:19.655Z,102868.81
2022-11-12T16:30:47.648Z,102866.09
2022-11-12T16:33:14.431Z,102865.09
2022-11-12T16:35:40.988Z,102867.09
2022-11-12T16:38:14.988Z,102870.50
2022-11-12T16:40:43.007Z,102869.66
2022-11-12T16:43:09.574Z,102864.25
2022-11-12T16:45:39.964Z,102856.00
2022-11-12T16:48:32.739Z,102865.09
2022-11-12T16:51:00.490Z,102862.41
2022-11-12T16:53:27.299Z,102864.25
2022-11-12T16:55:56.369Z,102868.81
2022-11-12T16:58:23.157Z,102864.50
2022-11-12T17:00:53.420Z,102869.19
2022-11-12T17:03:19.977Z,102869.19
2022-11-12T17:05:52.441Z,102872.63
2022-11-12T17:08:18.967Z,102882.72
2022-11-12T17:10:45.485Z,102873.03
2022-11-12T17:13:13.397Z,102874.03
2022-11-12T17:15:40.184Z,102878.47
2022-11-12T17:18:07.696Z,102879.44
2022-11-12T17:20:34.986Z,102878.75
2022-11-12T17:23:01.503Z,102878.75
2022-11-12T17:25:28.062Z,102874.72
2022-11-12T17:27:54.592Z,102873.88
2022-11-12T17:30:21.167Z,102869.59
2022-11-12T17:32:48.888Z,102873.00
2022-11-12T17:35:15.479Z,102867.03
2022-11-12T17:37:42.011Z,102873.44
2022-11-12T17:40:09.143Z,102873.59
2022-11-12T17:42:35.735Z,102884.25
2022-11-12T17:45:02.272Z,102879.56
2022-11-12T17:47:28.851Z,102874.44
2022-11-12T17:49:55.385Z,102870.75
2022-11-12T17:52:21.956Z,102872.44
2022-11-12T17:54:48.492Z,102874.00
2022-11-12T17:57:15.065Z,102871.16
2022-11-12T17:59:41.625Z,102878.13
2022-11-12T18:02:12.077Z,102883.41
2022-11-12T18:04:38.727Z,102876.16
2022-11-12T18:07:05.345Z,102869.75
2022-11-12T18:09:31.975Z,102869.19
2022-11-12T18:11:58.861Z,102863.63
2022-11-12T18:14:26.060Z,102873.31
2022-11-12T18:16:52.599Z,102871.59
2022-11-12T18:19:19.217Z,102867.03
2022-11-12T18:21:45.903Z,102863.88
2022-11-12T18:24:15.352Z,102860.22
2022-11-12T18:26:43.088Z,102868.03
2022-11-12T18:29:09.797Z,102860.06
2022-11-12T18:31:36.329Z,102861.91
2022-11-12T18:34:02.881Z,102858.22
2022-11-12T18:36:29.524Z,102863.63
2022-11-12T18:38:56.359Z,102867.31
2022-11-12T18:41:30.126Z,102860.47
2022-11-12T18:43:57.049Z,102862.06
2022-11-12T18:46:23.758Z,102869.28
2022-11-12T18:48:50.672Z,102872.97
2022-11-12T18:51:19.260Z,102871.28
2022-11-12T18:53:46.524Z,102869.56
2022-11-12T18:56:15.661Z,102858.75
2022-11-12T18:58:42.697Z,102872.28
2022-11-12T19:01:17.341Z,102872.97
2022-11-12T19:03:44.402Z,102865.00
2022-11-12T19:06:14.830Z,102865.72
2022-11-12T19:08:41.494Z,102859.34
2022-11-12T19:11:13.248Z,102870.75
2022-11-12T19:13:40.443Z,102863.63
2022-11-12T19:16:14.055Z,102865.03
2022-11-12T19:18:41.847Z,102868.75
2022-11-12T19:21:14.271Z,102869.47
2022-11-12T19:23:44.109Z,102861.50
2022-11-12T19:26:17.898Z,102868.47
2022-11-12T19:28:45.017Z,102863.34
2022-11-12T19:31:15.181Z,102869.59
2022-11-12T19:33:42.498Z,102870.59
2022-11-12T19:36:12.949Z,102875.88
2022-11-12T19:38:39.493Z,102876.84
2022-11-12T19:41:07.692Z,102871.31
2022-11-12T19:43:34.503Z,102866.91
2022-11-12T19:46:01.095Z,102873.31
2022-11-12T19:48:27.941Z,102873.16
2022-11-12T19:50:55.215Z,102871.59
2022-11-12T19:53:21.735Z,102870.75
2022-11-12T19:55:48.274Z,102869.75
2022-11-12T19:58:14.833Z,102873.44
2022-11-12T20:00:41.429Z,102867.19
2022-11-12T20:03:07.961Z,102870.03
2022-11-12T20:05:34.504Z,102877.41
2022-11-12T20:08:01.049Z,102872.72
2022-11-12T20:10:27.588Z,102867.31
2022-11-12T20:12:54.632Z,102861.06
2022-11-12T20:15:21.182Z,102861.16
2022-11-12T20:17:47.701Z,102858.47
2022-11-12T20:20:14.333Z,102864.75
2022-11-12T20:22:40.979Z,102867.56
2022-11-12T20:25:07.907Z,102870.28
2022-11-12T20:27:34.460Z,102868.44
2022-11-12T20:30:01.057Z,102876.69
2022-11-12T20:32:27.572Z,102879.25
2022-11-12T20:34:54.147Z,102879.84
2022-11-12T20:37:20.772Z,102867.31
2022-11-12T20:39:47.300Z,102874.44
2022-11-12T20:42:13.886Z,102870.03
2022-11-12T20:44:41.217Z,102863.47
2022-11-12T20:47:07.789Z,102864.19
2022-11-12T20:49:34.336Z,102874.16
2022-11-12T20:52:00.905Z,102868.03
2022-11-12T20:54:27.477Z,102874.28
2022-11-12T20:56:55.305Z,102865.91
2022-11-12T20:59:23.245Z,102860.50
2022-11-12T21:01:49.788Z,102866.19
2022-11-12T21:04:16.355Z,102866.31
2022-11-12T21:06:43.047Z,102866.19
2022-11-12T21:09:09.633Z,102863.63
2022-11-12T21:11:36.166Z,102869.88
2022-11-12T21:14:02.692Z,102859.06
2022-11-12T21:16:29.282Z,102859.94
2022-11-12T21:18:55.870Z,102867.31
2022-11-12T21:21:22.466Z,102858.94
2022-11-12T21:23:51.805Z,102856.09
2022-11-12T21:26:22.707Z,102842.84
2022-11-12T21:28:51.868Z,102848.25
2022-11-12T21:31:29.581Z,102841.72
2022-11-12T21:34:00.192Z,102834.75
2022-11-12T21:36:28.195Z,102840.00
2022-11-12T21:38:54.732Z,102836.72
2022-11-12T21:41:23.716Z,102848.25
2022-11-12T21:43:51.093Z,102838.44
2022-11-12T21:46:23.301Z,102839.16
2022-11-12T21:48:54.720Z,102844.56
2022-11-12T21:51:27.678Z,102839.72
2022-11-12T21:53:56.048Z,102841.72
2022-11-12T21:56:23.641Z,102838.28
2022-11-12T21:58:50.577Z,102839.88
2022-11-12T22:01:20.344Z,102835.16
2022-11-12T22:03:51.818Z,102845.97
2022-11-12T22:06:19.999Z,102835.16
2022-11-12T22:08:46.963Z,102840.44
2022-11-12T22:11:15.783Z,102835.16
2022-11-12T22:13:42.637Z,102829.03
2022-11-12T22:16:11.832Z,102831.88
2022-11-12T22:18:38.452Z,102825.78
2022-11-12T22:21:08.290Z,102828.47
2022-11-12T22:23:37.644Z,102816.81
2022-11-12T22:26:06.370Z,102819.50
2022-11-12T22:28:34.423Z,102808.97
2022-11-12T22:31:10.518Z,102804.16
2022-11-12T22:33:37.846Z,102806.72
2022-11-12T22:36:10.042Z,102805.41
2022-11-12T22:38:38.585Z,102809.13
2022-11-12T22:41:07.630Z,102803.56
2022-11-12T22:43:34.754Z,102808.84
2022-11-12T22:46:15.537Z,102803.56
2022-11-12T22:48:42.134Z,102806.03
2022-11-12T22:51:13.765Z,102800.19
2022-11-12T22:53:40.322Z,102803.88
2022-11-12T22:56:09.606Z,102795.34
2022-11-12T22:58:36.995Z,102794.34
2022-11-12T23:01:08.723Z,102786.94
2022-11-12T23:03:36.096Z,102792.34
2022-11-12T23:06:04.969Z,102781.41
2022-11-12T23:08:32.311Z,102786.81
2022-11-12T23:11:06.496Z,102777.56
2022-11-12T23:13:33.089Z,102783.66
2022-11-12T23:15:59.733Z,102781.69
2022-11-12T23:18:26.527Z,102775.56
2022-11-12T23:20:53.242Z,102775.00
2022-11-12T23:23:19.800Z,102781.13
2022-11-12T23:25:46.352Z,102778.56
2022-11-12T23:28:12.921Z,102777.72
2022-11-12T23:30:39.444Z,102775.00
2022-11-12T23:33:06.028Z,102763.31
2022-11-12T23:35:32.575Z,102757.03
2022-11-12T23:37:59.118Z,102762.44
2022-11-12T23:40:30.808Z,102761.59
2022-11-12T23:42:57.756Z,102758.03
2022-11-12T23:45:24.307Z,102754.22
2022-11-12T23:47:50.831Z,102752.63
2022-11-12T23:50:17.585Z,102743.50
2022-11-12T23:52:44.117Z,102741.81
2022-11-12T23:55:10.685Z,102750.06
2022-11-12T23:57:37.214Z,102747.38
